Time;durP1;ratioP1;P1;durP2;ratioP2;P2;SDS_P1;SDS_P2;PMS_P1;PMS_P2;Temp;Humidity;BMP_temperature;BMP_pressure;BME280_temperature;BME280_humidity;BME280_pressure;Samples;Min_cycle;Max_cycle;Signal;HPM_P1;HPM_P2
2023/04/05 00:00:27;;;;;;;4.30;1.30;;;;;;;5.86;52.01;100896.13;5073180;28;20444;-77
2023/04/05 00:02:53;;;;;;;5.55;1.75;;;;;;;5.82;53.23;100895.56;5090830;28;20374;-78
2023/04/05 00:05:28;;;;;;;5.60;1.60;;;;;;;5.88;52.45;100896.81;5091406;28;20374;-78
2023/04/05 00:07:54;;;;;;;8.00;1.73;;;;;;;5.96;51.90;100898.78;5091307;28;20405;-77
2023/04/05 00:10:19;;;;;;;5.10;1.45;;;;;;;6.15;51.81;100895.38;5091529;28;20366;-77
2023/04/05 00:12:45;;;;;;;6.70;1.77;;;;;;;6.14;51.53;100894.56;5072763;28;20797;-77
2023/04/05 00:15:10;;;;;;;6.78;2.05;;;;;;;6.14;51.96;100897.19;5090436;28;20369;-77
2023/04/05 00:17:36;;;;;;;5.05;1.40;;;;;;;6.01;51.68;100886.06;5089999;28;20405;-77
2023/04/05 00:20:06;;;;;;;4.70;1.33;;;;;;;6.06;51.80;100889.94;5074187;28;20378;-77
2023/04/05 00:22:34;;;;;;;5.10;1.52;;;;;;;6.08;51.90;100884.56;5076634;28;20396;-78
2023/04/05 00:25:01;;;;;;;7.10;1.90;;;;;;;5.92;52.02;100879.78;5094399;28;20369;-76
2023/04/05 00:27:26;;;;;;;3.40;1.30;;;;;;;5.75;51.70;100876.03;5094141;28;20401;-77
2023/04/05 00:29:52;;;;;;;6.28;1.70;;;;;;;5.87;51.80;100880.22;5094573;28;20734;-76
2023/04/05 00:32:17;;;;;;;6.47;1.80;;;;;;;5.90;52.06;100881.72;5093845;28;20506;-76
2023/04/05 00:34:42;;;;;;;5.30;1.47;;;;;;;5.96;52.15;100881.22;5094026;28;20392;-76
2023/04/05 00:37:08;;;;;;;6.53;1.60;;;;;;;5.83;51.94;100884.06;5094045;28;20381;-77
2023/04/05 00:39:33;;;;;;;5.15;1.52;;;;;;;5.97;51.67;100884.69;5094048;28;20385;-77
2023/04/05 00:42:02;;;;;;;6.43;1.67;;;;;;;6.04;51.98;100884.00;5093952;28;20434;-77
2023/04/05 00:44:28;;;;;;;8.88;2.00;;;;;;;5.92;51.67;100877.16;5060180;28;20373;-77
2023/04/05 00:46:54;;;;;;;5.67;1.77;;;;;;;6.01;51.67;100883.44;5093781;28;20420;-77
2023/04/05 00:49:20;;;;;;;4.57;1.80;;;;;;;6.09;52.19;100881.78;5076896;28;20383;-78
2023/04/05 00:51:47;;;;;;;6.18;1.77;;;;;;;6.09;51.56;100866.00;5077440;28;20468;-78
2023/04/05 00:54:13;;;;;;;8.05;1.77;;;;;;;6.07;51.46;100864.50;5095017;28;20465;-78
2023/04/05 00:56:40;;;;;;;5.60;2.03;;;;;;;6.12;52.24;100878.03;5094653;28;20868;-78
2023/04/05 00:59:05;;;;;;;5.70;1.65;;;;;;;6.06;51.64;100876.78;5094566;28;20384;-77
2023/04/05 01:01:36;;;;;;;6.20;1.60;;;;;;;5.88;51.55;100866.06;5093378;28;20453;-77
2023/04/05 01:04:04;;;;;;;5.82;1.42;;;;;;;5.81;51.92;100878.09;5094183;28;20476;-78
2023/04/05 01:06:36;;;;;;;5.40;1.98;;;;;;;5.76;51.62;100880.28;5095709;28;20409;-78
2023/04/05 01:09:11;;;;;;;5.32;1.90;;;;;;;5.87;52.10;100866.19;5095508;28;20377;-77
2023/04/05 01:11:38;;;;;;;8.57;2.10;;;;;;;5.88;52.11;100873.97;5095296;28;20373;-78
2023/04/05 01:14:03;;;;;;;5.35;1.75;;;;;;;5.88;51.91;100870.50;5095137;28;20476;-78
2023/04/05 01:16:29;;;;;;;5.57;2.00;;;;;;;5.99;52.14;100867.78;5096486;28;20435;-78
2023/04/05 01:18:58;;;;;;;5.17;1.40;;;;;;;5.99;51.34;100866.97;5110675;28;20452;-78
2023/04/05 01:21:38;;;;;;;6.60;1.55;;;;;;;5.99;51.93;100864.31;5100441;28;20393;-78
2023/04/05 01:24:08;;;;;;;3.67;1.40;;;;;;;6.09;52.03;100868.63;5116070;28;20379;-78
2023/04/05 01:26:56;;;;;;;3.63;1.33;;;;;;;6.06;51.50;100860.19;5104900;28;20488;-78
2023/04/05 01:29:41;;;;;;;7.60;1.65;;;;;;;6.22;52.09;100872.81;5093245;28;20369;-77
2023/04/05 01:32:16;;;;;;;6.40;1.73;;;;;;;6.20;52.02;100874.75;5091927;28;20381;-77
2023/04/05 01:35:00;;;;;;;5.73;1.57;;;;;;;6.11;51.55;100864.06;5093437;28;20458;-77
2023/04/05 01:37:31;;;;;;;3.97;1.27;;;;;;;6.23;51.63;100871.81;5092989;28;20375;-78
2023/04/05 01:39:58;;;;;;;4.82;1.60;;;;;;;6.20;51.53;100872.94;5093850;28;20781;-77
2023/04/05 01:42:25;;;;;;;5.45;1.48;;;;;;;6.09;51.14;100865.19;5093069;28;20424;-78
2023/04/05 01:44:52;;;;;;;5.50;1.40;;;;;;;6.06;51.72;100865.44;5074592;28;20384;-78
2023/04/05 01:47:19;;;;;;;5.00;1.58;;;;;;;6.06;51.53;100878.59;5092897;28;20397;-77
2023/04/05 01:49:45;;;;;;;5.85;1.42;;;;;;;5.96;51.70;100875.97;5092670;28;20384;-77
2023/04/05 01:52:10;;;;;;;4.25;1.35;;;;;;;5.97;51.46;100872.34;5074861;28;20369;-77
2023/04/05 01:54:36;;;;;;;4.10;1.30;;;;;;;5.99;51.29;100867.78;5074820;28;20385;-77
2023/04/05 01:57:01;;;;;;;6.80;1.40;;;;;;;5.92;51.80;100869.25;5092931;28;20671;-77
2023/04/05 01:59:27;;;;;;;3.87;1.30;;;;;;;6.04;51.60;100873.47;5074351;28;20460;-77
2023/04/05 02:01:53;;;;;;;5.50;1.50;;;;;;;6.04;51.39;100867.38;5092750;28;20418;-77
2023/04/05 02:04:18;;;;;;;8.52;2.10;;;;;;;6.07;51.81;100864.50;5092932;28;20377;-77
2023/04/05 02:06:44;;;;;;;13.30;4.35;;;;;;;6.14;51.45;100865.59;5113595;28;20394;-76
2023/04/05 02:09:09;;;;;;;5.75;2.50;;;;;;;6.17;51.32;100873.19;5095007;28;20445;-76
2023/04/05 02:11:35;;;;;;;7.43;1.90;;;;;;;6.17;51.26;100870.56;5109874;28;20393;-76
2023/04/05 02:14:00;;;;;;;7.17;2.37;;;;;;;6.10;51.47;100872.94;5100652;28;20369;-77
2023/04/05 02:16:26;;;;;;;7.22;2.70;;;;;;;6.25;52.06;100876.00;5074896;28;20401;-77
2023/04/05 02:18:56;;;;;;;10.23;5.37;;;;;;;6.21;51.53;100877.25;5092876;28;20456;-77
2023/04/05 02:21:22;;;;;;;6.13;1.80;;;;;;;6.18;51.40;100874.06;5092585;28;20377;-77
2023/04/05 02:23:48;;;;;;;6.33;2.20;;;;;;;6.11;51.67;100879.84;5092383;28;20388;-77
2023/04/05 02:26:14;;;;;;;5.50;1.90;;;;;;;6.12;52.00;100880.66;5092540;28;20389;-77
2023/04/05 02:28:40;;;;;;;5.88;2.28;;;;;;;6.03;51.95;100874.47;5092131;28;20366;-77
2023/04/05 02:31:12;;;;;;;7.53;3.53;;;;;;;6.09;51.57;100888.88;5092328;28;20365;-77
2023/04/05 02:33:39;;;;;;;4.53;1.92;;;;;;;6.03;52.34;100871.81;5092224;28;20490;-77
2023/04/05 02:36:11;;;;;;;5.47;2.00;;;;;;;5.90;52.39;100887.81;5092185;28;20376;-77
2023/04/05 02:38:37;;;;;;;2.72;1.30;;;;;;;5.77;52.47;100875.88;5092076;28;20395;-77
2023/04/05 02:41:02;;;;;;;5.72;1.73;;;;;;;5.88;52.41;100887.13;5092173;28;20373;-78
2023/04/05 02:43:28;;;;;;;4.63;1.70;;;;;;;5.89;52.60;100886.16;5091371;28;20362;-77
2023/04/05 02:45:54;;;;;;;5.93;1.80;;;;;;;5.85;53.02;100894.44;5092060;28;20718;-77
2023/04/05 02:48:19;;;;;;;6.37;3.60;;;;;;;5.95;53.12;100892.69;5092134;28;20491;-77
2023/04/05 02:50:49;;;;;;;4.90;1.52;;;;;;;5.91;52.75;100893.94;5091888;28;20377;-76
2023/04/05 02:53:18;;;;;;;4.87;1.80;;;;;;;5.87;53.01;100890.72;5091944;28;20362;-77
2023/04/05 02:55:53;;;;;;;6.10;1.90;;;;;;;5.87;52.95;100890.72;5074208;28;20374;-77
2023/04/05 02:58:19;;;;;;;5.47;1.77;;;;;;;5.85;52.94;100895.31;5091331;28;20384;-77
2023/04/05 03:00:50;;;;;;;6.43;1.65;;;;;;;5.75;52.54;100890.00;5090891;28;20373;-77
2023/04/05 03:03:22;;;;;;;5.00;1.60;;;;;;;5.74;52.90;100882.22;5091510;28;20366;-77
2023/04/05 03:05:55;;;;;;;2.40;1.45;;;;;;;5.88;52.83;100900.28;5091962;28;20391;-77
2023/04/05 03:08:22;;;;;;;3.17;1.65;;;;;;;5.84;52.65;100898.88;5091388;28;20439;-77
2023/04/05 03:10:50;;;;;;;5.28;2.15;;;;;;;5.70;53.17;100894.81;5092222;28;20373;-78
2023/04/05 03:13:16;;;;;;;4.85;1.75;;;;;;;5.66;52.60;100900.50;5091393;28;20391;-77
2023/04/05 03:15:42;;;;;;;4.90;1.85;;;;;;;5.50;53.18;100896.56;5091553;28;20461;-78
2023/04/05 03:18:08;;;;;;;6.82;2.30;;;;;;;5.67;53.18;100905.63;5092003;28;20804;-78
2023/04/05 03:20:39;;;;;;;9.90;4.35;;;;;;;5.53;53.68;100906.00;5093909;28;20388;-77
2023/04/05 03:23:07;;;;;;;10.60;4.32;;;;;;;5.60;52.82;100906.28;5073018;28;20454;-76
2023/04/05 03:25:37;;;;;;;10.88;4.75;;;;;;;5.50;53.19;100903.63;5089859;28;20362;-77
2023/04/05 03:28:04;;;;;;;9.10;4.00;;;;;;;5.66;53.25;100906.56;5091248;28;20415;-77
2023/04/05 03:30:31;;;;;;;10.27;4.15;;;;;;;5.61;53.05;100908.78;5091880;28;20472;-77
2023/04/05 03:32:59;;;;;;;5.13;3.20;;;;;;;5.77;52.85;100908.28;5092149;28;20357;-79
2023/04/05 03:35:26;;;;;;;6.50;2.35;;;;;;;5.75;52.46;100908.41;5091553;28;20791;-76
2023/04/05 03:37:52;;;;;;;4.72;2.10;;;;;;;5.82;52.78;100911.34;5091410;28;20460;-77
2023/04/05 03:40:17;;;;;;;5.70;1.90;;;;;;;5.80;52.89;100904.53;5090716;28;20448;-77
2023/04/05 03:42:44;;;;;;;4.00;1.70;;;;;;;5.62;53.51;100899.94;5066468;28;20422;-76
2023/04/05 03:45:10;;;;;;;7.05;2.33;;;;;;;5.72;52.92;100908.66;5089933;28;20389;-77
2023/04/05 03:47:36;;;;;;;5.88;2.47;;;;;;;5.70;53.05;100907.16;5090762;28;20401;-77
2023/04/05 03:50:02;;;;;;;9.80;3.67;;;;;;;5.58;53.47;100914.28;5091125;28;20385;-77
2023/04/05 03:52:28;;;;;;;8.40;3.42;;;;;;;5.55;53.80;100912.78;5090663;28;20411;-77
2023/04/05 03:54:53;;;;;;;6.88;3.00;;;;;;;5.73;53.44;100899.00;5091974;28;20475;-77
2023/04/05 03:57:19;;;;;;;9.57;2.63;;;;;;;5.80;53.06;100907.16;5095115;28;21035;-77
2023/04/05 03:59:45;;;;;;;6.80;1.93;;;;;;;5.63;53.18;100906.00;5094952;28;20388;-77
2023/04/05 04:02:10;;;;;;;5.05;1.90;;;;;;;5.26;53.44;100910.00;5089776;28;20410;-77
2023/04/05 04:04:36;;;;;;;3.93;1.80;;;;;;;5.02;53.96;100909.44;5077459;28;20385;-78
2023/04/05 04:07:01;;;;;;;6.93;2.50;;;;;;;5.29;53.75;100909.72;5095220;28;20401;-77
2023/04/05 04:09:28;;;;;;;4.87;2.00;;;;;;;5.42;54.01;100925.31;5094258;28;20695;-77
2023/04/05 04:11:55;;;;;;;4.07;2.20;;;;;;;5.44;53.82;100925.16;5076734;28;20893;-78
2023/04/05 04:14:21;;;;;;;5.23;1.77;;;;;;;5.23;53.82;100914.69;5096618;28;20880;-78
2023/04/05 04:16:47;;;;;;;6.55;3.17;;;;;;;5.36;53.58;100924.00;5095087;28;20405;-76
2023/04/05 04:19:12;;;;;;;7.03;3.07;;;;;;;5.33;53.83;100924.31;5094280;28;20377;-76
2023/04/05 04:21:38;;;;;;;6.37;2.73;;;;;;;5.25;53.78;100916.22;5094438;28;20672;-76
2023/04/05 04:24:04;;;;;;;9.45;4.38;;;;;;;5.30;53.90;100916.66;5093983;28;20714;-77
2023/04/05 04:26:36;;;;;;;8.48;4.93;;;;;;;5.29;54.13;100922.88;5077378;28;20397;-78
2023/04/05 04:29:05;;;;;;;11.50;4.93;;;;;;;5.27;53.79;100923.97;5093593;28;20408;-77
2023/04/05 04:31:32;;;;;;;12.20;6.88;;;;;;;5.44;53.67;100914.66;5094376;28;20395;-77
2023/04/05 04:33:58;;;;;;;13.02;5.93;;;;;;;5.29;53.59;100928.13;5092887;28;20389;-78
2023/04/05 04:36:35;;;;;;;5.83;3.70;;;;;;;5.38;53.59;100925.69;5093214;28;20474;-79
2023/04/05 04:39:04;;;;;;;4.78;3.08;;;;;;;5.25;54.15;100910.97;5093105;28;20691;-77
2023/04/05 04:41:32;;;;;;;4.63;2.60;;;;;;;5.27;53.85;100918.72;5079742;28;20424;-77
2023/04/05 04:44:01;;;;;;;2.90;1.80;;;;;;;5.24;54.35;100924.22;5076875;28;20404;-78
2023/04/05 04:46:41;;;;;;;4.88;1.75;;;;;;;5.26;53.62;100917.91;5096405;28;20400;-78
2023/04/05 04:49:07;;;;;;;6.85;2.30;;;;;;;5.17;54.41;100921.31;5077960;28;20841;-78
2023/04/05 04:51:32;;;;;;;4.45;1.88;;;;;;;5.27;54.13;100922.19;5095541;28;20404;-78
2023/04/05 04:53:58;;;;;;;5.78;1.80;;;;;;;5.23;54.23;100919.97;5094479;28;20408;-77
2023/04/05 04:56:23;;;;;;;4.60;2.03;;;;;;;5.32;53.86;100920.00;5094275;28;20393;-77
2023/04/05 04:58:49;;;;;;;4.37;1.83;;;;;;;5.35;54.08;100922.38;5093974;28;20377;-77
2023/04/05 05:01:14;;;;;;;4.23;1.80;;;;;;;5.30;54.55;100924.56;5094027;28;20445;-77
2023/04/05 05:03:41;;;;;;;5.53;2.20;;;;;;;5.48;53.87;100934.47;5094404;28;20396;-78
2023/04/05 05:06:07;;;;;;;18.45;10.63;;;;;;;5.73;53.91;100936.66;5094324;28;20386;-77
2023/04/05 05:08:33;;;;;;;5.82;2.88;;;;;;;5.65;53.44;100936.47;5095449;28;20373;-78
2023/04/05 05:10:59;;;;;;;8.43;4.53;;;;;;;5.73;53.85;100939.28;5095199;28;20423;-78
2023/04/05 05:13:25;;;;;;;9.07;4.57;;;;;;;5.75;53.49;100937.34;5095131;28;20464;-77
2023/04/05 05:15:50;;;;;;;14.73;6.47;;;;;;;5.91;53.53;100936.84;5093892;28;20452;-78
2023/04/05 05:18:16;;;;;;;18.13;6.97;;;;;;;5.69;53.40;100930.00;5094404;28;20834;-78
2023/04/05 05:20:42;;;;;;;12.02;5.15;;;;;;;5.58;53.57;100924.81;5094418;28;20457;-77
2023/04/05 05:23:07;;;;;;;10.13;4.40;;;;;;;5.79;53.37;100937.91;5092303;28;20829;-77
2023/04/05 05:25:33;;;;;;;6.83;4.20;;;;;;;5.67;53.42;100938.97;5093667;28;20373;-78
2023/04/05 05:27:58;;;;;;;5.35;2.78;;;;;;;5.76;52.83;100940.78;5093887;28;20404;-77
2023/04/05 05:30:25;;;;;;;8.57;2.75;;;;;;;5.81;52.60;100935.16;5093966;28;20366;-77
2023/04/05 05:32:51;;;;;;;7.50;2.67;;;;;;;6.04;52.09;100946.34;5093564;28;20388;-77
2023/04/05 05:35:17;;;;;;;5.05;3.83;;;;;;;5.98;52.26;100952.97;5094769;28;20374;-79
2023/04/05 05:37:43;;;;;;;13.02;9.20;;;;;;;5.98;52.53;100942.44;5093792;28;20365;-78
2023/04/05 05:40:12;;;;;;;26.60;17.02;;;;;;;5.96;52.38;100947.00;5094661;28;20361;-78
2023/04/05 05:42:38;;;;;;;5.38;3.33;;;;;;;5.94;52.65;100951.50;5097999;28;20435;-78
2023/04/05 05:45:05;;;;;;;2.47;1.60;;;;;;;5.79;51.37;100956.31;5077689;28;20377;-77
2023/04/05 05:47:31;;;;;;;5.53;2.65;;;;;;;5.82;51.93;100953.44;5094331;28;20401;-77
2023/04/05 05:49:56;;;;;;;4.20;2.60;;;;;;;5.98;52.02;100945.06;5075946;28;20385;-79
2023/04/05 05:52:22;;;;;;;4.53;2.60;;;;;;;6.01;51.87;100949.22;5094356;28;20380;-78
2023/04/05 05:54:48;;;;;;;3.60;2.45;;;;;;;6.16;51.21;100949.66;5089116;28;20369;-78
2023/04/05 05:57:13;;;;;;;3.97;2.20;;;;;;;6.06;50.80;100952.28;5093536;28;20430;-79
2023/04/05 05:59:40;;;;;;;3.80;1.50;;;;;;;5.68;51.60;100952.00;5086636;28;20377;-78
2023/04/05 06:02:06;;;;;;;4.95;2.67;;;;;;;5.83;51.42;100960.34;5084604;28;20430;-77
2023/04/05 06:04:33;;;;;;;4.90;2.50;;;;;;;5.89;51.48;100951.94;5078300;28;20377;-77
2023/04/05 06:06:59;;;;;;;8.60;3.25;;;;;;;5.88;50.95;100957.31;5085030;28;20520;-78
2023/04/05 06:09:25;;;;;;;7.80;4.10;;;;;;;5.96;51.65;100956.69;5075688;28;20420;-78
2023/04/05 06:11:53;;;;;;;11.95;5.18;;;;;;;6.22;50.97;100955.22;5094483;28;20412;-79
2023/04/05 06:14:19;;;;;;;47.65;22.60;;;;;;;6.31;50.73;100959.69;5103653;28;20376;-79
2023/04/05 06:16:45;;;;;;;13.37;6.03;;;;;;;6.04;51.13;100954.22;5091890;28;20409;-78
2023/04/05 06:19:10;;;;;;;8.10;4.43;;;;;;;6.10;50.88;100938.75;5107121;28;20399;-77
2023/04/05 06:21:36;;;;;;;4.77;2.93;;;;;;;6.28;50.60;100957.34;5079418;28;20385;-79
2023/04/05 06:24:01;;;;;;;4.67;2.70;;;;;;;6.05;50.35;100962.00;5093254;28;20393;-78
2023/04/05 06:26:28;;;;;;;6.93;3.47;;;;;;;6.19;50.54;100959.94;5085572;28;20409;-79
2023/04/05 06:28:55;;;;;;;5.40;3.22;;;;;;;6.47;50.38;100959.16;5055191;28;20382;-76
2023/04/05 06:31:26;;;;;;;4.32;2.30;;;;;;;6.08;49.79;100959.06;5071639;28;20379;-78
2023/04/05 06:33:52;;;;;;;4.05;1.75;;;;;;;6.03;49.98;100961.28;5073409;28;20848;-80
2023/04/05 06:36:17;;;;;;;5.55;2.35;;;;;;;6.41;49.95;100962.34;5072919;28;20525;-80
2023/04/05 06:38:43;;;;;;;4.35;2.17;;;;;;;6.59;49.62;100967.75;5071278;28;20367;-78
2023/04/05 06:41:09;;;;;;;4.67;2.23;;;;;;;6.49;49.90;100964.28;5072001;28;20375;-79
2023/04/05 06:43:34;;;;;;;2.40;1.67;;;;;;;6.47;49.77;100955.69;5071276;28;20371;-77
2023/04/05 06:46:00;;;;;;;3.50;1.70;;;;;;;6.51;49.48;100957.06;5072161;28;20417;-77
2023/04/05 06:48:28;;;;;;;4.17;1.90;;;;;;;6.80;49.65;100967.63;5071752;28;20448;-80
2023/04/05 06:51:00;;;;;;;3.92;1.73;;;;;;;6.77;48.90;100962.63;5058317;28;20375;-78
2023/04/05 06:53:26;;;;;;;3.40;1.80;;;;;;;6.67;48.54;100962.63;5055346;28;20371;-77
2023/04/05 06:55:56;;;;;;;9.65;6.55;;;;;;;6.64;49.39;100973.44;5055603;28;20379;-78
2023/04/05 06:58:22;;;;;;;8.55;3.92;;;;;;;6.90;48.45;100978.16;5072499;28;20399;-78
2023/04/05 07:00:51;;;;;;;14.30;7.82;;;;;;;7.25;48.94;100979.38;5085159;28;20376;-79
2023/04/05 07:03:17;;;;;;;6.00;2.30;;;;;;;6.99;48.13;100977.31;5064126;28;20363;-80
2023/04/05 07:05:52;;;;;;;7.13;4.83;;;;;;;7.07;48.68;100982.72;5073835;28;20487;-79
2023/04/05 07:08:22;;;;;;;62.37;25.20;;;;;;;7.23;48.77;100976.88;5073628;28;20399;-78
2023/04/05 07:10:49;;;;;;;11.07;4.67;;;;;;;7.11;47.63;100995.63;5073198;28;20432;-79
2023/04/05 07:13:16;;;;;;;7.15;3.42;;;;;;;7.13;47.87;100994.53;5072590;28;20375;-78
2023/04/05 07:15:42;;;;;;;8.68;3.75;;;;;;;7.03;47.67;101002.41;5056956;28;20462;-80
2023/04/05 07:18:07;;;;;;;4.50;2.70;;;;;;;7.02;48.15;101002.56;5073519;28;20868;-78
2023/04/05 07:20:33;;;;;;;8.15;5.88;;;;;;;7.15;47.91;100991.72;5073428;28;20387;-79
2023/04/05 07:22:58;;;;;;;5.50;3.58;;;;;;;7.37;48.24;100988.78;5075455;28;20385;-78
2023/04/05 07:25:24;;;;;;;3.90;2.27;;;;;;;7.40;47.45;100998.19;5074325;28;20459;-79
2023/04/05 07:27:51;;;;;;;4.30;1.93;;;;;;;7.08;47.29;100994.94;5073106;28;20403;-80
2023/04/05 07:30:17;;;;;;;25.37;14.33;;;;;;;7.27;48.38;101002.00;5074016;28;20383;-80
2023/04/05 07:32:42;;;;;;;7.77;4.00;;;;;;;7.39;47.74;100994.75;5073603;28;20367;-79
2023/04/05 07:35:08;;;;;;;22.50;20.13;;;;;;;7.53;48.63;100992.66;5082618;28;20385;-79
2023/04/05 07:37:33;;;;;;;6.45;3.80;;;;;;;7.73;47.50;100999.50;5088517;28;20371;-79
2023/04/05 07:39:59;;;;;;;8.83;3.90;;;;;;;7.61;47.27;100993.56;5065564;28;20474;-79
2023/04/05 07:42:26;;;;;;;5.90;5.20;;;;;;;7.35;48.18;100996.00;5073161;28;20401;-78
2023/04/05 07:44:52;;;;;;;7.10;4.63;;;;;;;7.62;47.71;100994.41;5072945;28;20447;-79
2023/04/05 07:47:17;;;;;;;5.25;2.95;;;;;;;7.68;47.23;100996.47;5072824;28;20783;-78
2023/04/05 07:49:43;;;;;;;6.35;2.90;;;;;;;7.69;47.13;101000.78;5073666;28;20359;-78
2023/04/05 07:52:08;;;;;;;9.37;5.60;;;;;;;7.63;47.36;100996.91;5073375;28;20767;-78
2023/04/05 07:54:38;;;;;;;9.00;6.70;;;;;;;7.67;47.44;100994.81;5073426;28;20375;-78
2023/04/05 07:57:04;;;;;;;7.13;4.20;;;;;;;7.71;47.17;101001.47;5072854;28;20934;-79
2023/04/05 07:59:30;;;;;;;6.82;4.55;;;;;;;7.72;46.69;101004.94;5073885;28;20399;-81
2023/04/05 08:01:55;;;;;;;5.90;4.18;;;;;;;7.92;47.14;101010.97;5083749;28;20462;-80
2023/04/05 08:04:22;;;;;;;6.53;3.70;;;;;;;7.99;46.71;101019.97;5070409;28;20386;-80
2023/04/05 08:06:47;;;;;;;5.47;3.08;;;;;;;7.89;46.33;101014.75;5084789;28;20430;-78
2023/04/05 08:09:13;;;;;;;8.27;3.20;;;;;;;7.95;47.05;101024.69;5078983;28;20379;-78
2023/04/05 08:11:38;;;;;;;2.88;2.00;;;;;;;7.97;46.70;101019.28;5059975;28;20371;-79
2023/04/05 08:14:04;;;;;;;4.60;2.90;;;;;;;8.13;46.89;101032.69;5075478;28;20782;-79
2023/04/05 08:16:30;;;;;;;3.57;2.27;;;;;;;8.14;46.21;101028.22;5075620;28;20406;-78
2023/04/05 08:18:55;;;;;;;4.80;4.10;;;;;;;8.25;46.89;101025.41;5076579;28;20783;-78
2023/04/05 08:21:21;;;;;;;3.45;2.08;;;;;;;8.27;45.36;101036.66;5076919;28;20406;-80
2023/04/05 08:23:48;;;;;;;7.53;4.85;;;;;;;8.24;46.66;101037.75;5078046;28;20372;-79
2023/04/05 08:26:14;;;;;;;5.75;4.65;;;;;;;8.31;46.65;101034.56;5059722;28;20391;-79
2023/04/05 08:28:40;;;;;;;3.80;2.30;;;;;;;8.20;45.12;101030.31;5075798;28;20389;-80
2023/04/05 08:31:05;;;;;;;4.15;2.50;;;;;;;7.61;46.43;101022.59;5055414;28;20375;-79
2023/04/05 08:33:31;;;;;;;2.60;1.50;;;;;;;7.61;45.69;101030.50;5077622;28;20390;-78
2023/04/05 08:35:57;;;;;;;2.63;1.80;;;;;;;7.67;45.71;101031.75;5076377;28;20819;-79
2023/04/05 08:38:22;;;;;;;2.33;1.75;;;;;;;7.66;45.53;101030.91;5073860;28;20379;-80
2023/04/05 08:40:48;;;;;;;3.13;1.90;;;;;;;7.81;45.42;101043.66;5075640;28;20468;-79
2023/04/05 08:43:24;;;;;;;2.67;1.80;;;;;;;7.40;45.45;101035.13;5078169;28;20394;-79
2023/04/05 08:45:51;;;;;;;2.28;1.33;;;;;;;7.27;45.08;101033.63;5076922;28;20391;-80
2023/04/05 08:48:18;;;;;;;2.25;1.23;;;;;;;7.27;45.08;101043.34;5076624;28;20417;-79
2023/04/05 08:50:51;;;;;;;2.47;1.40;;;;;;;6.96;46.07;101058.47;5076375;28;20854;-79
2023/04/05 08:53:17;;;;;;;6.43;2.03;;;;;;;6.98;46.55;101051.25;5058524;28;20382;-79
2023/04/05 08:55:43;;;;;;;2.63;1.63;;;;;;;7.34;46.31;101057.63;5077177;28;20382;-79
2023/04/05 08:58:13;;;;;;;4.13;2.23;;;;;;;7.38;46.15;101056.38;5076753;28;20878;-81
2023/04/05 09:00:40;;;;;;;2.50;2.00;;;;;;;7.50;45.86;101069.41;5076738;28;20462;-80
2023/04/05 09:03:11;;;;;;;3.38;2.10;;;;;;;7.32;46.12;101069.28;5077086;28;20910;-79
2023/04/05 09:13:21;;;;;;;3.33;2.00;;;;;;;7.74;44.93;101059.25;5077087;28;20367;-81
2023/04/05 09:15:47;;;;;;;3.53;2.50;;;;;;;7.85;45.51;101050.31;5075713;28;20397;-79
2023/04/05 09:18:13;;;;;;;2.78;1.95;;;;;;;7.93;45.24;101062.78;5074816;28;20414;-81
2023/04/05 09:20:39;;;;;;;3.38;2.28;;;;;;;8.07;45.18;101050.91;5074346;28;20887;-80
2023/04/05 09:23:06;;;;;;;4.43;2.88;;;;;;;7.87;45.45;101045.72;5075266;28;20469;-78
2023/04/05 09:25:37;;;;;;;3.43;2.03;;;;;;;7.79;45.44;101056.97;5075911;28;20867;-79
2023/04/05 09:28:04;;;;;;;3.77;1.90;;;;;;;7.66;45.75;101046.75;5075792;28;20422;-79
2023/04/05 09:30:30;;;;;;;2.95;2.05;;;;;;;7.95;44.95;101055.56;5081260;28;20461;-79
2023/04/05 09:32:55;;;;;;;4.80;1.83;;;;;;;7.93;44.06;101060.97;5087724;28;20739;-78
2023/04/05 09:35:23;;;;;;;3.17;2.13;;;;;;;7.67;45.43;101047.59;5069824;28;20387;-78
2023/04/05 09:37:57;;;;;;;3.88;2.08;;;;;;;7.57;46.32;101049.41;5060350;28;20418;-79
2023/04/05 09:40:23;;;;;;;2.35;2.00;;;;;;;7.83;45.24;101058.38;5057175;28;20421;-80
2023/04/05 09:42:49;;;;;;;5.30;1.87;;;;;;;7.53;45.58;101061.22;5075002;28;20466;-79
2023/04/05 09:45:17;;;;;;;3.63;2.13;;;;;;;7.68;45.34;101059.78;5075025;28;20394;-78
2023/04/05 09:47:53;;;;;;;5.43;2.22;;;;;;;7.56;45.25;101055.66;5074813;28;20402;-79
2023/04/05 09:50:19;;;;;;;40.42;23.67;;;;;;;7.92;45.75;101048.75;5075898;28;20468;-78
2023/04/05 09:52:45;;;;;;;14.05;5.88;;;;;;;7.53;45.77;101059.41;5074414;28;20580;-78
2023/04/05 09:55:12;;;;;;;4.32;2.53;;;;;;;7.30;45.36;101042.25;5058410;28;20462;-78
2023/04/05 09:57:39;;;;;;;3.20;2.53;;;;;;;7.51;45.77;101061.38;5075378;28;20727;-79
2023/04/05 10:00:15;;;;;;;5.83;2.53;;;;;;;7.52;45.28;101041.09;5060808;28;20470;-78
2023/04/05 10:02:41;;;;;;;2.30;1.73;;;;;;;7.36;45.48;101060.94;5076494;28;20743;-79
2023/04/05 10:05:14;;;;;;;3.00;1.97;;;;;;;7.50;46.00;101069.41;5076382;28;20927;-81
2023/04/05 10:07:42;;;;;;;6.50;3.67;;;;;;;7.62;46.24;101066.47;5068040;28;20383;-80
2023/04/05 10:10:11;;;;;;;13.63;6.35;;;;;;;7.77;45.93;101071.31;5073667;28;20928;-79
2023/04/05 10:12:40;;;;;;;7.25;3.38;;;;;;;7.54;45.81;101079.53;5073662;28;20386;-79
2023/04/05 10:15:10;;;;;;;3.72;2.55;;;;;;;7.51;45.89;101073.69;5076080;28;20409;-78
2023/04/05 10:17:47;;;;;;;5.40;3.42;;;;;;;7.83;45.90;101082.13;5077525;28;20494;-81
2023/04/05 10:20:21;;;;;;;4.47;3.20;;;;;;;8.38;45.01;101084.00;5060582;28;20411;-79
2023/04/05 10:23:08;;;;;;;3.33;2.25;;;;;;;7.91;44.70;101075.31;5094927;28;20742;-80
2023/04/05 10:25:54;;;;;;;4.40;2.90;;;;;;;7.98;43.28;101076.41;5095587;28;20366;-79
2023/04/05 10:28:25;;;;;;;5.43;3.28;;;;;;;7.59;45.07;101073.84;5094490;28;20401;-79
2023/04/05 10:44:36;;;;;;;4.32;2.75;;;;;;;7.57;44.51;101079.25;5070405;28;20975;-79
2023/04/05 10:57:28;;;;;;;6.27;4.90;;;;;;;8.86;44.40;101089.19;5069962;28;20384;-78
2023/04/05 10:59:54;;;;;;;5.22;3.40;;;;;;;8.70;42.67;101092.50;5068704;28;20407;-79
2023/04/05 11:02:20;;;;;;;5.18;3.58;;;;;;;8.57;44.18;101091.03;5068509;28;20461;-79
2023/04/05 11:04:54;;;;;;;6.68;4.05;;;;;;;8.71;43.58;101086.22;5068167;28;20376;-78
2023/04/05 11:07:20;;;;;;;7.18;4.00;;;;;;;8.59;43.67;101104.94;5070036;28;20407;-78
2023/04/05 11:10:00;;;;;;;6.50;4.88;;;;;;;8.32;44.74;101094.31;5071286;28;20728;-80
2023/04/05 11:12:44;;;;;;;8.13;4.22;;;;;;;8.75;44.71;101088.44;5069481;28;20470;-79
2023/04/05 11:15:28;;;;;;;6.43;3.90;;;;;;;8.84;42.68;101105.22;5070676;28;20457;-78
2023/04/05 11:18:15;;;;;;;6.70;3.55;;;;;;;8.45;43.59;101094.84;5070612;28;20437;-81
2023/04/05 11:20:43;;;;;;;7.90;4.00;;;;;;;8.40;43.80;101108.47;5070191;28;20371;-78
2023/04/05 11:23:10;;;;;;;5.70;3.90;;;;;;;8.41;44.49;101088.19;5070286;28;20395;-79
2023/04/05 11:25:40;;;;;;;7.15;4.80;;;;;;;9.10;43.22;101085.97;5069899;28;20390;-80
2023/04/05 11:28:07;;;;;;;7.20;4.72;;;;;;;9.49;43.37;101085.63;5067298;28;20471;-80
2023/04/05 11:30:52;;;;;;;5.50;4.13;;;;;;;9.36;42.75;101084.22;5069366;28;20400;-78
2023/04/05 11:33:37;;;;;;;6.25;4.10;;;;;;;9.20;42.79;101092.03;5069970;28;20414;-79
2023/04/05 11:36:04;;;;;;;6.40;4.32;;;;;;;9.16;43.67;101106.50;5069445;28;20434;-78
2023/04/05 11:38:29;;;;;;;8.93;4.57;;;;;;;9.25;42.76;101088.91;5069757;28;20854;-78
2023/04/05 11:41:11;;;;;;;7.87;4.70;;;;;;;9.59;43.09;101085.53;5068945;28;20475;-78
2023/04/05 11:43:37;;;;;;;14.17;8.63;;;;;;;9.38;42.73;101097.28;5067644;28;20401;-78
2023/04/05 11:46:03;;;;;;;6.05;4.00;;;;;;;9.30;42.75;101081.34;5056739;28;20380;-79
2023/04/05 11:48:29;;;;;;;7.10;4.63;;;;;;;8.95;43.36;101094.41;5056452;28;20381;-79
2023/04/05 11:50:56;;;;;;;8.43;4.80;;;;;;;8.99;43.26;101079.91;5060924;28;20860;-78
2023/04/05 11:53:22;;;;;;;5.57;4.43;;;;;;;9.26;42.57;101090.56;5035705;28;20504;-79
2023/04/05 11:55:50;;;;;;;8.00;4.50;;;;;;;9.49;42.85;101085.63;5054721;28;20440;-79
2023/04/05 11:58:21;;;;;;;5.43;3.95;;;;;;;9.38;42.48;101087.53;5052651;28;20399;-78
2023/04/05 12:00:59;;;;;;;21.43;12.77;;;;;;;9.66;42.35;101090.06;5054651;28;20384;-79
2023/04/05 12:03:27;;;;;;;22.48;12.80;;;;;;;9.62;41.99;101086.06;5052921;28;20837;-78
2023/04/05 12:05:54;;;;;;;16.58;9.25;;;;;;;9.68;41.94;101092.56;5056804;28;20377;-79